Time;durP1;ratioP1;P1;durP2;ratioP2;P2;SDS_P1;SDS_P2;PMS_P1;PMS_P2;Temp;Humidity;BMP_temperature;BMP_pressure;BME280_temperature;BME280_humidity;BME280_pressure;Samples;Min_cycle;Max_cycle;Signal;HPM_P1;HPM_P2
2022/07/17 00:00:00;;;;;;;17.48;3.78;;;;;;;25.08;67.02;100765.22;5034331;28;20085;-76
2022/07/17 00:02:26;;;;;;;3.70;3.13;;;;;;;25.07;67.34;100766.28;5049784;28;20074;-76
2022/07/17 00:04:51;;;;;;;7.80;3.05;;;;;;;25.08;67.77;100774.31;5054094;28;20037;-76
2022/07/17 00:07:17;;;;;;;6.25;3.08;;;;;;;25.10;67.92;100782.38;5054123;28;20100;-77
2022/07/17 00:09:42;;;;;;;10.40;4.20;;;;;;;25.02;67.78;100764.16;5053928;28;20052;-76
2022/07/17 00:12:07;;;;;;;7.85;4.28;;;;;;;25.01;67.97;100758.91;5045069;28;20029;-75
2022/07/17 00:14:33;;;;;;;11.27;4.18;;;;;;;25.02;68.34;100771.56;5033799;28;20036;-76
2022/07/17 00:16:58;;;;;;;9.80;4.57;;;;;;;25.08;68.36;100768.81;5053559;28;20028;-76
2022/07/17 00:19:25;;;;;;;13.18;4.97;;;;;;;25.09;68.49;100769.66;5053945;28;20024;-76
2022/07/17 00:21:50;;;;;;;6.38;3.90;;;;;;;25.13;68.19;100766.28;5053871;28;20031;-76
2022/07/17 00:24:19;;;;;;;10.73;4.07;;;;;;;25.15;68.21;100783.41;5054003;28;20382;-76
2022/07/17 00:26:49;;;;;;;8.90;4.47;;;;;;;25.09;68.55;100775.16;5053827;28;20021;-76
2022/07/17 00:29:15;;;;;;;10.07;4.70;;;;;;;25.11;68.30;100773.03;5053622;28;20100;-76
2022/07/17 00:31:40;;;;;;;11.45;3.85;;;;;;;24.98;68.67;100760.19;5052621;28;20113;-77
2022/07/17 00:34:06;;;;;;;8.07;4.93;;;;;;;24.94;68.90;100763.56;5052285;28;20530;-78
2022/07/17 00:36:31;;;;;;;13.25;4.45;;;;;;;24.85;69.39;100760.19;5053728;28;20021;-75
2022/07/17 00:38:57;;;;;;;12.38;4.35;;;;;;;24.82;69.37;100758.72;5053729;28;20028;-76
2022/07/17 00:41:22;;;;;;;10.02;3.88;;;;;;;24.72;69.53;100750.03;5052563;28;20046;-76
2022/07/17 00:43:48;;;;;;;9.55;4.38;;;;;;;24.72;69.70;100747.28;5052279;28;20035;-77
2022/07/17 00:46:13;;;;;;;10.68;4.28;;;;;;;24.73;69.57;100753.63;5053569;28;20021;-76
2022/07/17 00:48:39;;;;;;;13.35;4.43;;;;;;;24.69;70.07;100766.97;5053491;28;20493;-77
2022/07/17 00:51:05;;;;;;;10.15;4.22;;;;;;;24.72;69.93;100766.53;5043376;28;20483;-77
2022/07/17 00:53:33;;;;;;;15.93;4.72;;;;;;;24.68;69.83;100773.50;5047248;28;20021;-77
2022/07/17 00:56:01;;;;;;;17.17;5.88;;;;;;;24.62;70.29;100774.34;5053304;28;20078;-77
2022/07/17 00:58:29;;;;;;;16.92;5.40;;;;;;;24.58;70.39;100770.38;5053247;28;20039;-75
2022/07/17 01:00:56;;;;;;;13.57;5.05;;;;;;;24.60;70.15;100765.50;5051725;28;20021;-75
2022/07/17 01:03:23;;;;;;;10.57;4.20;;;;;;;24.61;69.83;100767.19;5052430;28;20091;-77
2022/07/17 01:05:49;;;;;;;11.98;4.85;;;;;;;24.62;69.84;100771.59;5052814;28;20526;-77
2022/07/17 01:08:15;;;;;;;9.85;4.70;;;;;;;24.64;69.53;100769.50;5052937;28;20112;-78
2022/07/17 01:10:40;;;;;;;16.70;4.72;;;;;;;24.49;69.05;100735.88;5047824;28;20087;-76
2022/07/17 01:13:07;;;;;;;8.60;4.85;;;;;;;24.55;68.92;100757.03;5032983;28;20053;-75
2022/07/17 01:15:36;;;;;;;19.02;3.97;;;;;;;24.47;68.58;100743.47;5031564;28;20032;-76
2022/07/17 01:18:10;;;;;;;14.20;3.97;;;;;;;24.62;68.41;100765.25;5032904;28;20454;-76
2022/07/17 01:20:37;;;;;;;6.22;3.80;;;;;;;24.54;68.62;100760.84;5037278;28;20071;-77
2022/07/17 01:23:03;;;;;;;7.60;4.07;;;;;;;24.51;68.79;100757.66;5052087;28;20029;-76
2022/07/17 01:25:29;;;;;;;11.20;3.83;;;;;;;24.48;68.92;100755.34;5052722;28;20104;-76
2022/07/17 01:27:54;;;;;;;12.05;4.05;;;;;;;24.51;68.91;100763.16;5051254;28;20471;-75
2022/07/17 01:30:20;;;;;;;11.90;3.72;;;;;;;24.53;68.70;100763.78;5051967;28;20065;-77
2022/07/17 01:32:45;;;;;;;11.48;3.45;;;;;;;24.53;68.59;100753.63;5052432;28;20029;-77
2022/07/17 01:35:14;;;;;;;8.60;3.92;;;;;;;24.51;68.10;100755.75;5052398;28;20542;-76
2022/07/17 01:37:41;;;;;;;13.23;3.90;;;;;;;24.52;67.65;100751.97;5052459;28;20112;-75
2022/07/17 01:40:08;;;;;;;4.43;3.30;;;;;;;24.55;67.41;100758.94;5051058;28;20490;-77
2022/07/17 01:42:34;;;;;;;9.75;3.67;;;;;;;24.57;66.76;100754.91;5042911;28;20470;-76
2022/07/17 01:45:00;;;;;;;8.73;4.13;;;;;;;24.57;66.16;100762.31;5031195;28;20030;-77
2022/07/17 01:47:25;;;;;;;11.82;3.95;;;;;;;24.51;65.75;100761.25;5032264;28;20063;-77
2022/07/17 01:49:55;;;;;;;14.75;4.25;;;;;;;24.48;65.73;100761.69;5032787;28;20086;-77
2022/07/17 01:52:23;;;;;;;11.02;3.78;;;;;;;24.44;65.08;100760.41;5038803;28;20398;-77
2022/07/17 01:54:49;;;;;;;10.10;3.83;;;;;;;24.37;65.40;100759.59;5045780;28;20131;-76
2022/07/17 01:57:15;;;;;;;8.38;4.93;;;;;;;24.34;64.71;100754.50;5044233;28;20467;-76
2022/07/17 01:59:41;;;;;;;10.30;4.03;;;;;;;24.27;64.45;100737.16;5049413;28;20040;-76
2022/07/17 02:02:08;;;;;;;11.13;3.67;;;;;;;24.33;64.12;100747.31;5045146;28;20079;-76
2022/07/17 02:04:37;;;;;;;11.93;3.83;;;;;;;24.31;64.14;100749.44;5051770;28;20060;-76
2022/07/17 02:07:03;;;;;;;17.95;4.53;;;;;;;24.35;63.63;100756.19;5051879;28;20017;-78
2022/07/17 02:09:29;;;;;;;9.32;3.67;;;;;;;24.33;63.63;100752.81;5051280;28;20094;-77
2022/07/17 02:11:55;;;;;;;8.68;3.90;;;;;;;24.36;63.79;100763.38;5051703;28;20020;-76
2022/07/17 02:14:20;;;;;;;19.83;6.57;;;;;;;24.33;63.64;100753.66;5051697;28;20025;-76
2022/07/17 02:16:46;;;;;;;12.15;6.78;;;;;;;24.29;64.31;100749.63;5051734;28;20518;-76
2022/07/17 02:19:12;;;;;;;19.98;9.05;;;;;;;24.24;64.74;100754.06;5050296;28;20414;-76
2022/07/17 02:21:38;;;;;;;24.35;11.00;;;;;;;24.30;65.08;100759.56;5049490;28;20047;-77
2022/07/17 02:24:03;;;;;;;39.75;16.77;;;;;;;24.23;65.57;100768.88;5051684;28;20510;-76
2022/07/17 02:26:29;;;;;;;36.50;17.58;;;;;;;24.21;65.69;100765.50;5051741;28;20025;-76
2022/07/17 02:28:54;;;;;;;32.35;18.67;;;;;;;24.15;65.65;100766.31;5051114;28;20102;-75
2022/07/17 02:31:20;;;;;;;29.05;18.33;;;;;;;24.13;65.99;100762.91;5032470;28;20027;-75
2022/07/17 02:33:46;;;;;;;46.15;19.30;;;;;;;24.14;66.24;100775.63;5031620;28;20390;-76
2022/07/17 02:36:11;;;;;;;44.42;19.95;;;;;;;24.09;66.19;100767.13;5031555;28;20025;-78
2022/07/17 02:38:37;;;;;;;40.72;20.92;;;;;;;24.12;66.23;100767.59;5031677;28;20025;-77
2022/07/17 02:41:02;;;;;;;33.40;19.92;;;;;;;24.06;66.53;100773.03;5048079;28;20110;-76
2022/07/17 02:43:28;;;;;;;40.58;19.20;;;;;;;23.98;66.83;100770.47;5051765;28;20036;-75
2022/07/17 02:45:53;;;;;;;40.55;20.13;;;;;;;23.95;67.10;100776.38;5056161;28;20083;-76
2022/07/17 02:48:19;;;;;;;38.67;19.55;;;;;;;23.83;67.48;100774.25;5053836;28;20134;-76
2022/07/17 02:50:44;;;;;;;30.85;18.77;;;;;;;23.83;67.41;100781.66;5049680;28;20036;-76
2022/07/17 02:53:10;;;;;;;36.45;21.48;;;;;;;23.83;67.38;100774.25;5051586;28;20029;-76
2022/07/17 02:55:35;;;;;;;44.15;20.38;;;;;;;23.84;67.17;100788.84;5050990;28;20032;-76
2022/07/17 02:58:01;;;;;;;41.05;22.17;;;;;;;23.77;66.94;100769.59;5051311;28;20074;-76
2022/07/17 03:00:28;;;;;;;53.90;22.02;;;;;;;23.86;66.94;100794.97;5049641;28;20025;-78
2022/07/17 03:02:55;;;;;;;40.85;20.15;;;;;;;23.82;66.85;100791.78;5051586;28;20352;-75
2022/07/17 03:05:21;;;;;;;39.92;18.88;;;;;;;23.75;67.01;100799.19;5051426;28;20033;-77
2022/07/17 03:07:47;;;;;;;32.60;19.13;;;;;;;23.76;66.91;100800.00;5051458;28;20029;-75
2022/07/17 03:10:12;;;;;;;43.25;18.95;;;;;;;23.71;66.92;100799.78;5050574;28;20040;-75
2022/07/17 03:12:38;;;;;;;54.35;19.15;;;;;;;23.67;66.94;100784.75;5051456;28;20025;-76
2022/07/17 03:15:05;;;;;;;41.15;16.10;;;;;;;23.69;66.90;100800.00;5051411;28;20029;-76
2022/07/17 03:17:31;;;;;;;36.05;17.42;;;;;;;23.69;66.65;100807.41;5051219;28;20041;-75
2022/07/17 03:19:56;;;;;;;41.92;16.00;;;;;;;23.66;66.47;100805.91;5049938;28;20020;-76
2022/07/17 03:22:22;;;;;;;26.10;13.73;;;;;;;23.70;66.39;100796.19;5051087;28;20047;-75
2022/07/17 03:24:47;;;;;;;43.20;16.83;;;;;;;23.64;66.19;100799.75;5051299;28;20029;-77
2022/07/17 03:27:13;;;;;;;42.28;16.52;;;;;;;23.61;66.35;100791.94;5050923;28;20103;-75
2022/07/17 03:29:38;;;;;;;37.70;15.32;;;;;;;23.58;66.39;100789.59;5048447;28;20037;-75
2022/07/17 03:32:04;;;;;;;41.78;14.88;;;;;;;23.53;66.41;100783.03;5030868;28;20418;-75
2022/07/17 03:34:30;;;;;;;37.75;14.82;;;;;;;23.38;66.22;100774.06;5030621;28;20111;-75
2022/07/17 03:36:55;;;;;;;25.35;12.93;;;;;;;23.43;66.25;100788.91;5030530;28;20025;-76
2022/07/17 03:39:20;;;;;;;31.33;14.02;;;;;;;23.46;66.34;100799.47;5043849;28;20082;-76
2022/07/17 03:41:46;;;;;;;39.42;13.73;;;;;;;23.39;66.45;100801.34;5049493;28;20068;-77
2022/07/17 03:44:11;;;;;;;27.52;11.68;;;;;;;23.45;66.11;100803.28;5050198;28;20025;-76
2022/07/17 03:46:37;;;;;;;25.35;10.98;;;;;;;23.55;65.66;100801.00;5042420;28;20017;-75
2022/07/17 03:49:02;;;;;;;30.83;11.07;;;;;;;23.61;65.42;100802.06;5030531;28;20064;-76
2022/07/17 03:51:28;;;;;;;21.00;9.88;;;;;;;23.60;64.72;100806.72;5048429;28;20017;-76
2022/07/17 03:53:54;;;;;;;29.35;9.93;;;;;;;23.71;64.14;100814.38;5049239;28;20414;-75
2022/07/17 03:56:19;;;;;;;17.70;7.75;;;;;;;23.77;63.56;100808.06;5048676;28;20025;-77
2022/07/17 03:58:44;;;;;;;26.20;8.52;;;;;;;23.83;62.98;100809.97;5050007;28;20036;-75
2022/07/17 04:01:10;;;;;;;14.82;7.40;;;;;;;23.95;62.32;100814.84;5049807;28;20040;-75
2022/07/17 04:03:36;;;;;;;16.90;7.00;;;;;;;24.02;61.71;100810.22;5050342;28;20036;-76
2022/07/17 04:06:02;;;;;;;19.63;6.32;;;;;;;24.06;60.79;100806.03;5050261;28;20102;-76
2022/07/17 04:08:27;;;;;;;13.95;6.78;;;;;;;24.13;60.58;100813.25;5053221;28;20025;-76
2022/07/17 04:10:53;;;;;;;20.52;7.63;;;;;;;24.27;60.34;100814.97;5041620;28;20384;-75
2022/07/17 04:13:18;;;;;;;20.85;6.93;;;;;;;24.35;60.30;100827.66;5034155;28;20097;-76
2022/07/17 04:15:50;;;;;;;23.45;6.95;;;;;;;24.30;59.91;100817.31;5034310;28;20045;-75
2022/07/17 04:18:16;;;;;;;18.53;7.67;;;;;;;24.48;59.60;100833.19;5039142;28;20017;-77
2022/07/17 04:20:42;;;;;;;21.00;7.13;;;;;;;24.53;59.36;100829.78;5053449;28;20291;-76
2022/07/17 04:23:08;;;;;;;17.38;6.15;;;;;;;24.55;59.04;100823.03;5053803;28;20090;-75
2022/07/17 04:25:34;;;;;;;16.60;6.57;;;;;;;24.62;58.85;100831.28;5053834;28;20158;-76
2022/07/17 04:28:00;;;;;;;9.85;5.63;;;;;;;24.65;59.08;100831.69;5053873;28;20099;-75
2022/07/17 04:30:25;;;;;;;9.00;4.80;;;;;;;24.66;58.17;100836.16;5046558;28;20467;-75
2022/07/17 04:32:50;;;;;;;11.50;5.05;;;;;;;24.76;57.66;100825.59;5033832;28;20469;-77
2022/07/17 04:35:16;;;;;;;15.38;4.57;;;;;;;24.87;57.83;100829.63;5033767;28;20021;-77
2022/07/17 04:37:41;;;;;;;20.00;4.90;;;;;;;24.89;57.41;100830.28;5033491;28;20116;-78
2022/07/17 04:40:08;;;;;;;10.05;4.35;;;;;;;25.00;57.18;100831.50;5039330;28;20036;-76
2022/07/17 04:42:33;;;;;;;16.65;4.97;;;;;;;25.10;56.88;100837.44;5053164;28;20045;-77
2022/07/17 04:44:59;;;;;;;8.57;4.13;;;;;;;25.20;56.43;100835.06;5053302;28;20078;-76
2022/07/17 04:47:24;;;;;;;5.97;4.35;;;;;;;25.23;55.02;100826.38;5053337;28;20024;-76
2022/07/17 04:49:49;;;;;;;22.13;4.45;;;;;;;25.31;54.13;100842.69;5051469;28;20023;-77
2022/07/17 04:52:15;;;;;;;15.18;4.28;;;;;;;25.43;53.68;100843.72;5033330;28;20503;-77
2022/07/17 04:54:40;;;;;;;5.60;3.83;;;;;;;25.57;52.53;100839.00;5032039;28;20072;-77
2022/07/17 04:57:07;;;;;;;9.02;3.33;;;;;;;25.56;52.40;100843.72;5033177;28;20045;-77
2022/07/17 04:59:32;;;;;;;9.00;3.65;;;;;;;25.63;51.82;100827.97;5033165;28;20033;-76
2022/07/17 05:01:58;;;;;;;10.98;4.10;;;;;;;25.68;52.28;100839.22;5051218;28;20183;-77
2022/07/17 05:04:23;;;;;;;13.00;3.60;;;;;;;25.72;51.98;100843.19;5053041;28;20029;-77
2022/07/17 05:06:49;;;;;;;10.38;4.53;;;;;;;25.63;52.19;100839.00;5052999;28;20029;-77
2022/07/17 05:09:14;;;;;;;19.40;4.32;;;;;;;25.74;50.89;100829.22;5052960;28;20040;-77
2022/07/17 05:11:40;;;;;;;9.05;3.50;;;;;;;25.82;51.29;100843.59;5052376;28;20029;-76
2022/07/17 05:14:05;;;;;;;12.30;3.17;;;;;;;25.91;51.05;100845.03;5052763;28;20039;-76
2022/07/17 05:16:31;;;;;;;5.88;3.67;;;;;;;25.91;51.11;100842.28;5052857;28;20029;-76
2022/07/17 05:18:56;;;;;;;21.42;3.85;;;;;;;26.09;50.46;100854.47;5052630;28;20040;-76
2022/07/17 05:21:22;;;;;;;11.25;4.50;;;;;;;26.11;49.73;100853.22;5038732;28;20052;-76
2022/07/17 05:23:47;;;;;;;10.63;3.63;;;;;;;26.18;49.65;100858.69;5032789;28;20037;-76
2022/07/17 05:26:13;;;;;;;15.73;4.03;;;;;;;26.16;49.66;100849.81;5032771;28;20029;-76
2022/07/17 05:28:38;;;;;;;7.97;3.60;;;;;;;26.16;49.64;100849.81;5032865;28;20032;-79
2022/07/17 05:31:05;;;;;;;8.25;3.67;;;;;;;26.18;49.55;100864.19;5033360;28;20041;-76
2022/07/17 05:33:30;;;;;;;12.73;3.58;;;;;;;26.17;49.95;100857.88;5032706;28;20037;-77
2022/07/17 05:35:56;;;;;;;8.73;3.63;;;;;;;26.24;50.31;100860.56;5035134;28;20400;-76
2022/07/17 05:38:21;;;;;;;12.15;3.50;;;;;;;26.35;49.93;100862.63;5052498;28;20033;-77
2022/07/17 05:40:46;;;;;;;13.75;3.97;;;;;;;26.39;49.98;100856.44;5048590;28;20111;-76
2022/07/17 05:43:12;;;;;;;7.72;3.33;;;;;;;26.52;49.11;100852.75;5053446;28;20115;-77
2022/07/17 05:45:38;;;;;;;9.23;4.30;;;;;;;26.62;49.35;100858.63;5063421;28;20043;-76
2022/07/17 05:48:06;;;;;;;7.07;2.95;;;;;;;26.70;48.95;100874.88;5054032;28;20025;-77
2022/07/17 05:50:31;;;;;;;12.18;3.33;;;;;;;26.76;48.58;100870.38;5051105;28;20028;-78
2022/07/17 05:52:57;;;;;;;10.82;3.40;;;;;;;26.90;47.70;100864.59;5052009;28;20051;-77
2022/07/17 05:55:23;;;;;;;10.68;3.90;;;;;;;26.96;48.13;100863.69;5052132;28;20454;-77
2022/07/17 05:57:48;;;;;;;9.38;4.10;;;;;;;26.98;48.08;100861.53;5052237;28;20107;-77
2022/07/17 06:00:14;;;;;;;11.75;3.55;;;;;;;27.01;47.48;100863.00;5051171;28;20425;-77
2022/07/17 06:02:40;;;;;;;9.57;3.60;;;;;;;27.09;47.13;100868.25;5051943;28;20033;-78
2022/07/17 06:05:06;;;;;;;15.45;3.63;;;;;;;27.12;46.25;100866.94;5052115;28;20032;-77
2022/07/17 06:07:31;;;;;;;12.85;3.90;;;;;;;27.13;46.44;100863.06;5051892;28;20033;-75
2022/07/17 06:09:57;;;;;;;16.90;3.65;;;;;;;27.11;45.98;100851.44;5052022;28;20482;-77
2022/07/17 06:12:22;;;;;;;6.15;3.05;;;;;;;27.04;45.48;100837.69;5051221;28;20029;-77
2022/07/17 06:14:48;;;;;;;14.90;4.40;;;;;;;27.27;46.08;100871.03;5052048;28;20021;-77
2022/07/17 06:17:13;;;;;;;9.20;3.78;;;;;;;27.31;46.10;100871.41;5051681;28;20391;-78
2022/07/17 06:19:39;;;;;;;6.40;4.20;;;;;;;27.37;46.16;100876.84;5051857;28;20474;-76
2022/07/17 06:22:04;;;;;;;7.95;4.03;;;;;;;27.52;45.11;100877.34;5053381;28;20455;-76
2022/07/17 06:24:30;;;;;;;12.15;3.92;;;;;;;27.58;44.59;100880.31;5052228;28;20476;-79
2022/07/17 06:26:55;;;;;;;8.23;3.67;;;;;;;27.65;43.58;100873.59;5051527;28;20024;-76
2022/07/17 06:29:49;;;;;;;7.20;3.13;;;;;;;27.67;43.29;100879.78;5048467;28;20039;-77
2022/07/17 06:32:16;;;;;;;9.13;3.97;;;;;;;27.73;43.14;100876.09;5058443;28;20036;-76
2022/07/17 06:34:41;;;;;;;10.32;3.17;;;;;;;27.79;41.75;100877.91;5057797;28;20165;-76
2022/07/17 06:37:07;;;;;;;9.20;3.60;;;;;;;27.79;42.16;100869.63;5042403;28;20108;-76
2022/07/17 06:39:32;;;;;;;8.15;3.63;;;;;;;27.96;42.04;100876.19;5055180;28;20063;-77
2022/07/17 06:41:58;;;;;;;6.70;3.67;;;;;;;28.03;41.68;100879.75;5065502;28;20053;-78
2022/07/17 06:44:24;;;;;;;6.57;3.67;;;;;;;28.12;40.47;100872.00;5072570;28;20109;-75
2022/07/17 06:46:49;;;;;;;7.30;4.22;;;;;;;28.25;38.74;100879.25;5071156;28;20074;-78
2022/07/17 06:49:15;;;;;;;13.70;3.38;;;;;;;28.27;38.98;100877.09;5055168;28;20043;-77
2022/07/17 06:51:41;;;;;;;10.95;3.13;;;;;;;28.35;38.45;100871.22;5053365;28;20049;-78
2022/07/17 06:54:07;;;;;;;4.65;3.03;;;;;;;28.26;38.14;100853.25;5067119;28;20107;-79
2022/07/17 06:56:32;;;;;;;10.23;3.40;;;;;;;28.45;37.17;100877.03;5051369;28;20112;-79
2022/07/17 06:58:58;;;;;;;6.75;3.03;;;;;;;28.48;36.89;100882.09;5050272;28;20032;-78
2022/07/17 07:01:23;;;;;;;14.55;4.03;;;;;;;28.53;36.22;100873.97;5052232;28;20032;-79
2022/07/17 07:03:49;;;;;;;13.43;3.63;;;;;;;28.51;35.79;100878.88;5055520;28;20401;-81
2022/07/17 07:06:14;;;;;;;10.48;3.30;;;;;;;28.59;35.40;100895.97;5043727;28;20068;-80
2022/07/17 07:08:40;;;;;;;14.60;3.28;;;;;;;28.71;34.24;100885.00;5051791;28;20033;-80
2022/07/17 07:11:05;;;;;;;14.45;3.60;;;;;;;28.58;34.43;100857.47;5056144;28;20108;-79
2022/07/17 07:13:30;;;;;;;10.38;3.30;;;;;;;28.79;34.78;100897.63;5067209;28;20124;-80
2022/07/17 07:15:56;;;;;;;11.57;4.72;;;;;;;28.83;34.00;100879.47;5041980;28;20484;-81
2022/07/17 07:18:22;;;;;;;9.00;3.25;;;;;;;28.87;33.81;100888.97;5049881;28;20036;-79
2022/07/17 07:20:47;;;;;;;6.40;2.75;;;;;;;28.97;33.25;100889.22;5051880;28;20025;-80
2022/07/17 07:23:13;;;;;;;11.35;3.10;;;;;;;28.99;33.94;100892.63;5051093;28;20025;-78
2022/07/17 07:25:38;;;;;;;11.52;4.00;;;;;;;29.11;32.72;100885.16;5051103;28;20498;-78
2022/07/17 07:28:04;;;;;;;9.27;3.20;;;;;;;29.18;32.83;100889.50;5046303;28;20032;-79
2022/07/17 07:30:29;;;;;;;5.82;3.30;;;;;;;29.26;32.54;100898.56;5059548;28;20103;-79
2022/07/17 07:32:55;;;;;;;23.75;3.33;;;;;;;29.29;32.04;100885.06;5051460;28;20486;-82
2022/07/17 07:35:20;;;;;;;5.70;2.58;;;;;;;29.37;31.67;100894.94;5034833;28;20033;-84
2022/07/17 07:37:46;;;;;;;15.45;3.38;;;;;;;29.39;31.59;100901.91;5047552;28;20044;-77
2022/07/17 07:40:12;;;;;;;11.93;3.05;;;;;;;29.31;31.89;100893.97;5055896;28;20467;-78
2022/07/17 07:42:38;;;;;;;6.35;2.85;;;;;;;29.43;31.24;100899.50;5053049;28;20051;-78
2022/07/17 07:45:04;;;;;;;12.55;2.30;;;;;;;29.47;31.88;100903.50;5054145;28;20406;-78
2022/07/17 07:47:29;;;;;;;7.82;2.78;;;;;;;29.51;32.52;100913.03;5053940;28;20406;-78
2022/07/17 07:49:55;;;;;;;7.80;2.75;;;;;;;29.60;32.11;100914.34;5053888;28;20033;-77
2022/07/17 07:52:20;;;;;;;6.40;2.15;;;;;;;29.57;31.58;100892.66;5053882;28;20061;-76
2022/07/17 07:54:46;;;;;;;13.35;2.78;;;;;;;29.55;30.90;100914.22;5053952;28;20403;-76
2022/07/17 07:57:11;;;;;;;23.10;3.28;;;;;;;29.63;30.87;100906.34;5052669;28;20063;-76
2022/07/17 07:59:38;;;;;;;8.98;2.38;;;;;;;29.66;30.85;100908.66;5053696;28;20044;-77
2022/07/17 08:02:03;;;;;;;17.27;3.88;;;;;;;29.84;31.01;100912.41;5055722;28;20025;-77
2022/07/17 08:04:29;;;;;;;7.13;2.15;;;;;;;29.97;30.38;100918.50;5060438;28;20122;-78
2022/07/17 08:06:56;;;;;;;8.55;2.92;;;;;;;30.06;30.99;100903.16;5054322;28;20082;-80
2022/07/17 08:09:21;;;;;;;11.60;4.03;;;;;;;30.22;30.98;100916.28;5053628;28;20037;-79
2022/07/17 08:11:47;;;;;;;5.13;2.60;;;;;;;30.39;30.84;100916.38;5053583;28;20056;-77
2022/07/17 08:14:12;;;;;;;10.30;2.55;;;;;;;30.62;30.28;100918.19;5053509;28;20403;-78
2022/07/17 08:16:38;;;;;;;5.47;2.38;;;;;;;30.72;29.38;100910.03;5053631;28;20032;-79
2022/07/17 08:19:03;;;;;;;9.00;2.05;;;;;;;30.89;28.92;100922.00;5053769;28;20040;-78
2022/07/17 08:21:29;;;;;;;8.57;2.72;;;;;;;30.93;29.47;100925.97;5053555;28;20027;-79
2022/07/17 08:23:54;;;;;;;9.32;2.28;;;;;;;30.98;29.41;100914.97;5053659;28;20403;-79
2022/07/17 08:26:20;;;;;;;5.60;2.50;;;;;;;31.06;29.01;100922.91;5053745;28;20461;-78
2022/07/17 08:28:46;;;;;;;5.47;1.90;;;;;;;31.21;28.69;100919.53;5054485;28;20033;-78
2022/07/17 08:31:12;;;;;;;18.05;3.13;;;;;;;31.20;28.09;100921.47;5057561;28;20040;-78
2022/07/17 08:33:37;;;;;;;12.18;3.28;;;;;;;31.20;28.13;100918.69;5064886;28;20040;-77
2022/07/17 08:36:03;;;;;;;9.77;2.50;;;;;;;30.99;28.05;100922.22;5055032;28;20031;-79
2022/07/17 08:38:28;;;;;;;10.27;2.38;;;;;;;30.89;28.70;100933.13;5053277;28;20035;-77
2022/07/17 08:40:54;;;;;;;5.43;2.25;;;;;;;30.78;28.67;100920.16;5053254;28;20414;-78
2022/07/17 08:43:20;;;;;;;2.65;1.92;;;;;;;30.82;28.61;100923.28;5053166;28;20021;-78
2022/07/17 08:45:47;;;;;;;5.97;2.50;;;;;;;30.77;28.63;100916.53;5052959;28;20021;-78
2022/07/17 08:48:15;;;;;;;9.20;2.42;;;;;;;30.83;29.35;100928.56;5053032;28;20037;-77
2022/07/17 08:50:42;;;;;;;10.23;3.75;;;;;;;30.83;29.63;100928.56;5053140;28;20032;-78
2022/07/17 08:53:08;;;;;;;7.65;2.83;;;;;;;30.82;30.30;100934.38;5052290;28;20031;-78
2022/07/17 08:55:34;;;;;;;8.32;3.30;;;;;;;30.86;29.75;100933.63;5052933;28;20402;-78
2022/07/17 08:57:59;;;;;;;12.20;3.10;;;;;;;30.95;30.06;100928.50;5052830;28;20032;-78
2022/07/17 09:00:26;;;;;;;14.88;4.18;;;;;;;30.97;30.44;100943.88;5052871;28;20029;-78
2022/07/17 09:02:56;;;;;;;6.68;3.50;;;;;;;30.95;29.98;100934.06;5051067;28;20036;-77
2022/07/17 09:05:23;;;;;;;9.35;2.60;;;;;;;30.98;29.66;100944.69;5051197;28;20388;-79
2022/07/17 09:07:48;;;;;;;5.80;2.38;;;;;;;30.76;29.86;100916.78;5052809;28;20025;-78
2022/07/17 09:10:14;;;;;;;17.17;4.15;;;;;;;30.86;30.43;100939.16;5052660;28;20036;-78
2022/07/17 09:12:40;;;;;;;12.95;4.10;;;;;;;30.85;30.16;100943.06;5052473;28;20013;-79
2022/07/17 09:15:19;;;;;;;19.17;4.30;;;;;;;30.84;30.14;100946.94;5052531;28;20090;-78
2022/07/17 09:17:52;;;;;;;9.40;3.20;;;;;;;30.86;29.78;100938.31;5052690;28;20402;-77
2022/07/17 09:20:19;;;;;;;12.57;2.60;;;;;;;30.70;28.85;100935.28;5052710;28;20029;-77
2022/07/17 09:22:55;;;;;;;13.80;2.47;;;;;;;30.70;29.04;100940.81;5052594;28;20071;-79
2022/07/17 09:25:33;;;;;;;10.60;2.65;;;;;;;30.57;29.23;100937.53;5052636;28;20025;-79
2022/07/17 09:28:02;;;;;;;5.30;2.15;;;;;;;30.46;29.60;100952.28;5051519;28;20051;-78
2022/07/17 09:30:28;;;;;;;6.32;2.45;;;;;;;30.45;29.00;100931.19;5052444;28;20021;-79
2022/07/17 09:32:54;;;;;;;3.65;2.28;;;;;;;30.52;29.37;100940.22;5052298;28;20032;-79
2022/07/17 09:35:22;;;;;;;8.23;2.78;;;;;;;30.31;29.75;100916.72;5051946;28;20107;-79
2022/07/17 09:37:47;;;;;;;7.22;2.63;;;;;;;30.37;29.20;100917.66;5051995;28;20021;-78
2022/07/17 09:41:09;;;;;;;6.43;2.90;;;;;;;30.62;28.90;100934.84;5052394;28;20020;-78
2022/07/17 09:43:00;;;;;;;8.80;3.20;;;;;;;30.74;29.68;100939.25;5052134;28;20124;-79
2022/07/17 09:45:25;;;;;;;7.32;2.28;;;;;;;30.87;29.08;100931.69;5055734;28;20517;-79
2022/07/17 09:47:52;;;;;;;6.20;3.03;;;;;;;30.79;29.28;100944.06;5052528;28;20017;-79
2022/07/17 09:50:18;;;;;;;9.55;4.13;;;;;;;30.87;29.07;100924.19;5051933;28;20029;-77
2022/07/17 09:52:44;;;;;;;7.72;2.30;;;;;;;31.03;28.41;100936.47;5051920;28;20036;-77
2022/07/17 09:55:11;;;;;;;3.40;2.75;;;;;;;31.05;28.97;100921.22;5051934;28;20083;-78
2022/07/17 09:57:41;;;;;;;7.85;4.00;;;;;;;31.15;28.86;100943.63;5052119;28;20025;-77
2022/07/17 10:00:18;;;;;;;7.47;2.90;;;;;;;31.19;28.68;100939.22;5051913;28;20463;-78
2022/07/17 10:02:44;;;;;;;5.22;1.80;;;;;;;31.29;28.37;100938.56;5051925;28;20021;-78
2022/07/17 10:05:12;;;;;;;3.78;2.53;;;;;;;31.36;28.02;100938.38;5051150;28;20036;-77
2022/07/17 10:07:42;;;;;;;13.38;2.53;;;;;;;31.42;27.87;100938.22;5052023;28;20025;-78
2022/07/17 10:10:09;;;;;;;6.15;2.35;;;;;;;31.51;28.66;100941.44;5051636;28;20031;-78
2022/07/17 10:12:38;;;;;;;14.68;2.40;;;;;;;31.42;27.87;100943.78;5051749;28;20025;-78
2022/07/17 10:15:04;;;;;;;5.25;2.55;;;;;;;31.30;28.24;100923.56;5051617;28;20025;-79
2022/07/17 10:17:30;;;;;;;7.63;2.60;;;;;;;31.50;28.00;100943.38;5051651;28;20017;-78
2022/07/17 10:19:56;;;;;;;5.13;2.58;;;;;;;31.48;28.21;100941.91;5051557;28;20424;-79
2022/07/17 10:22:23;;;;;;;13.80;3.15;;;;;;;31.38;27.97;100936.19;5051554;28;20107;-79
2022/07/17 10:24:49;;;;;;;4.32;2.30;;;;;;;31.45;28.07;100936.84;5051334;28;20079;-79
2022/07/17 10:27:24;;;;;;;5.18;2.70;;;;;;;31.39;28.46;100937.88;5050967;28;20048;-79
2022/07/17 10:30:26;;;;;;;7.72;2.47;;;;;;;31.47;28.33;100934.66;5051233;28;20025;-79
2022/07/17 10:32:58;;;;;;;20.85;3.85;;;;;;;31.54;29.14;100932.56;5040085;28;20033;-79
2022/07/17 10:35:23;;;;;;;;;;;;;;;31.70;28.13;100929.78;5051814;28;20090;-78
2022/07/17 10:37:49;;;;;;;11.95;2.88;;;;;;;31.83;28.42;100922.16;5051428;28;19912;-79
2022/07/17 10:40:14;;;;;;;8.10;2.28;;;;;;;31.99;28.27;100927.66;5051406;28;20435;-78
2022/07/17 10:42:40;;;;;;;4.05;2.10;;;;;;;32.10;27.91;100935.09;5051328;28;20071;-77
2022/07/17 10:45:16;;;;;;;6.30;2.13;;;;;;;32.18;27.31;100919.84;5051400;28;20035;-78
2022/07/17 10:47:43;;;;;;;8.25;2.65;;;;;;;32.25;27.23;100915.78;5051435;28;20029;-78
2022/07/17 10:50:11;;;;;;;9.73;3.20;;;;;;;32.32;26.68;100933.09;5050115;28;20027;-79
2022/07/17 10:52:36;;;;;;;7.30;2.30;;;;;;;32.35;26.99;100921.44;5051559;28;20021;-79
2022/07/17 10:55:04;;;;;;;7.55;2.40;;;;;;;32.54;27.00;100918.28;5051462;28;20024;-78
2022/07/17 10:57:31;;;;;;;6.85;2.45;;;;;;;32.64;27.19;100912.88;5051326;28;20047;-78
2022/07/17 10:59:57;;;;;;;4.20;2.15;;;;;;;32.63;26.04;100925.16;5051047;28;20029;-78
2022/07/17 11:02:31;;;;;;;7.32;2.17;;;;;;;32.49;26.54;100921.03;5051331;28;20078;-79
2022/07/17 11:05:11;;;;;;;10.35;2.83;;;;;;;32.39;27.30;100926.50;5051309;28;20123;-78
2022/07/17 11:07:48;;;;;;;7.38;3.00;;;;;;;32.31;27.04;100925.03;5051260;28;20117;-80
2022/07/17 11:10:14;;;;;;;5.25;2.45;;;;;;;32.38;26.43;100919.25;5051095;28;20021;-78
2022/07/17 11:12:39;;;;;;;5.72;2.55;;;;;;;32.46;26.49;100918.78;5051036;28;20024;-78
2022/07/17 11:15:05;;;;;;;3.03;2.38;;;;;;;32.47;26.02;100912.97;5051194;28;20017;-77